createdAt,value
2023-01-13T00:02:53.969Z,1.58
2023-01-13T00:05:55.475Z,1.60
2023-01-13T00:08:57.781Z,1.23
2023-01-13T00:11:59.308Z,1.50
2023-01-13T00:15:00.830Z,1.00
2023-01-13T00:18:02.437Z,1.50
2023-01-13T00:21:11.446Z,1.50
2023-01-13T00:24:12.979Z,2.35
2023-01-13T00:27:14.582Z,1.13
2023-01-13T00:30:16.355Z,1.77
2023-01-13T00:33:18.193Z,2.20
2023-01-13T00:36:20.692Z,1.17
2023-01-13T00:39:22.232Z,1.63
2023-01-13T00:42:42.229Z,1.80
2023-01-13T00:45:44.015Z,1.25
2023-01-13T00:48:47.027Z,1.70
2023-01-13T00:51:48.577Z,1.27
2023-01-13T00:54:50.110Z,1.40
2023-01-13T00:57:51.693Z,1.50
2023-01-13T01:00:53.303Z,1.40
2023-01-13T01:03:55.321Z,1.80
2023-01-13T01:06:56.819Z,1.63
2023-01-13T01:09:58.376Z,1.92
2023-01-13T01:12:59.864Z,1.88
2023-01-13T01:16:06.860Z,2.13
2023-01-13T01:19:08.495Z,1.48
2023-01-13T01:22:10.099Z,1.15
2023-01-13T01:25:11.730Z,1.40
2023-01-13T01:28:13.323Z,1.38
2023-01-13T01:31:20.653Z,1.75
2023-01-13T01:34:22.220Z,1.80
2023-01-13T01:37:23.728Z,1.50
2023-01-13T01:40:27.143Z,2.10
2023-01-13T01:44:00.296Z,1.63
2023-01-13T01:47:02.068Z,1.50
2023-01-13T01:50:04.695Z,1.85
2023-01-13T01:53:13.825Z,1.38
2023-01-13T01:56:17.047Z,1.92
2023-01-13T01:59:18.767Z,1.60
2023-01-13T02:02:20.826Z,1.75
2023-01-13T02:05:22.902Z,1.35
2023-01-13T02:08:25.078Z,1.67
2023-01-13T02:11:54.892Z,1.10
2023-01-13T02:15:03.021Z,1.38
2023-01-13T02:18:16.763Z,1.60
2023-01-13T02:21:26.982Z,1.27
2023-01-13T02:24:56.633Z,1.75
2023-01-13T02:28:26.449Z,1.42
2023-01-13T02:31:44.644Z,0.70
2023-01-13T02:35:00.176Z,1.17
2023-01-13T02:38:02.901Z,1.30
2023-01-13T02:41:29.056Z,1.45
2023-01-13T02:44:42.720Z,0.85
2023-01-13T02:47:47.767Z,0.95
2023-01-13T02:50:59.711Z,0.85
2023-01-13T02:54:07.475Z,0.70
2023-01-13T02:57:11.793Z,1.02
2023-01-13T03:00:15.507Z,1.00
2023-01-13T03:03:17.101Z,0.88
2023-01-13T03:06:30.802Z,0.95
2023-01-13T03:09:55.510Z,1.50
2023-01-13T03:16:28.280Z,1.20
2023-01-13T03:19:39.206Z,0.60
2023-01-13T03:22:49.090Z,0.60
2023-01-13T03:26:01.857Z,1.33
2023-01-13T03:29:22.020Z,0.60
2023-01-13T03:32:28.813Z,0.50
2023-01-13T03:35:47.228Z,1.23
2023-01-13T03:38:53.901Z,1.05
2023-01-13T03:42:01.471Z,0.70
2023-01-13T03:45:15.639Z,0.60
2023-01-13T03:48:20.998Z,1.40
2023-01-13T03:51:27.708Z,0.55
2023-01-13T03:54:33.907Z,1.40
2023-01-13T03:57:42.893Z,0.82
2023-01-13T04:00:52.262Z,1.10
2023-01-13T04:04:00.263Z,1.20
2023-01-13T04:07:23.255Z,0.80
2023-01-13T04:10:34.507Z,1.10
2023-01-13T04:13:40.081Z,1.10
2023-01-13T04:16:42.109Z,0.65
2023-01-13T04:19:43.645Z,0.60
2023-01-13T04:22:45.231Z,0.50
2023-01-13T04:25:47.404Z,0.43
2023-01-13T04:28:49.070Z,0.60
2023-01-13T04:31:50.650Z,0.50
2023-01-13T04:34:52.239Z,0.98
2023-01-13T04:37:53.813Z,0.50
2023-01-13T04:40:55.336Z,0.45
2023-01-13T04:43:56.914Z,0.45
2023-01-13T04:46:58.822Z,1.00
2023-01-13T04:50:00.348Z,0.63
2023-01-13T04:53:02.047Z,0.40
2023-01-13T04:56:03.691Z,0.32
2023-01-13T04:59:05.401Z,0.38
2023-01-13T05:02:08.970Z,0.38
2023-01-13T05:05:10.729Z,0.43
2023-01-13T05:08:12.307Z,0.55
2023-01-13T05:11:32.587Z,0.85
2023-01-13T05:14:52.380Z,0.57
2023-01-13T05:17:54.037Z,0.60
2023-01-13T05:20:55.739Z,0.43
2023-01-13T05:24:16.475Z,0.38
2023-01-13T05:27:18.530Z,0.25
2023-01-13T05:30:31.092Z,0.30
2023-01-13T05:33:34.881Z,1.42
2023-01-13T05:36:37.859Z,0.85
2023-01-13T05:40:00.470Z,0.40
2023-01-13T05:43:21.164Z,0.82
2023-01-13T05:46:22.850Z,0.93
2023-01-13T05:49:24.950Z,0.52
2023-01-13T05:52:26.628Z,0.40
2023-01-13T05:55:28.159Z,0.40
2023-01-13T05:58:29.707Z,0.65
2023-01-13T06:01:34.270Z,0.70
2023-01-13T06:04:35.851Z,0.70
2023-01-13T06:07:37.456Z,0.55
2023-01-13T06:10:39.236Z,1.00
2023-01-13T06:13:40.837Z,0.70
2023-01-13T06:16:42.406Z,0.47
2023-01-13T06:19:44.006Z,0.40
2023-01-13T06:22:48.046Z,0.50
2023-01-13T06:26:22.994Z,0.75
2023-01-13T06:32:32.500Z,0.43
2023-01-13T06:35:37.593Z,0.68
2023-01-13T06:38:42.923Z,0.40
2023-01-13T06:42:04.078Z,0.40
2023-01-13T06:45:06.033Z,0.30
2023-01-13T06:48:07.838Z,0.90
2023-01-13T06:51:09.459Z,0.47
2023-01-13T06:54:11.002Z,1.23
2023-01-13T06:57:12.577Z,0.90
2023-01-13T07:00:15.742Z,1.20
2023-01-13T07:03:18.776Z,0.65
2023-01-13T07:06:20.415Z,2.38
2023-01-13T07:09:22.029Z,1.85
2023-01-13T07:12:23.773Z,2.17
2023-01-13T07:15:30.057Z,1.40
2023-01-13T07:18:33.117Z,1.60
2023-01-13T07:21:34.671Z,2.10
2023-01-13T07:24:36.136Z,1.58
2023-01-13T07:27:38.112Z,0.77
2023-01-13T07:30:39.844Z,0.63
2023-01-13T07:33:41.464Z,2.20
2023-01-13T07:36:42.964Z,1.25
2023-01-13T07:39:45.409Z,0.70
2023-01-13T07:43:05.376Z,0.75
2023-01-13T07:46:07.183Z,0.50
2023-01-13T07:49:09.128Z,0.55
2023-01-13T07:52:10.711Z,0.73
2023-01-13T07:55:12.265Z,0.57
2023-01-13T07:58:13.765Z,0.50
2023-01-13T08:01:16.656Z,1.00
2023-01-13T08:04:18.577Z,0.95
2023-01-13T08:07:20.173Z,0.82
2023-01-13T08:10:21.708Z,0.55
2023-01-13T08:13:23.460Z,1.50
2023-01-13T08:16:25.157Z,0.90
2023-01-13T08:19:26.831Z,0.98
2023-01-13T08:22:31.033Z,0.85
2023-01-13T08:25:32.948Z,1.20
2023-01-13T08:28:34.960Z,0.88
2023-01-13T08:31:36.516Z,0.68
2023-01-13T08:34:38.012Z,0.45
2023-01-13T08:37:40.009Z,0.50
2023-01-13T08:40:41.667Z,0.88
2023-01-13T08:43:43.260Z,0.73
2023-01-13T08:46:44.796Z,0.63
2023-01-13T08:49:46.346Z,0.40
2023-01-13T08:52:47.876Z,0.77
2023-01-13T08:55:49.468Z,0.75
2023-01-13T08:58:51.125Z,3.33
2023-01-13T09:01:52.781Z,5.18
2023-01-13T09:04:55.327Z,1.23
2023-01-13T09:07:56.824Z,1.10
2023-01-13T09:10:58.606Z,0.65
2023-01-13T09:14:02.421Z,0.90
2023-01-13T09:17:04.946Z,0.60
2023-01-13T09:20:06.807Z,0.60
2023-01-13T09:23:10.569Z,0.93
2023-01-13T09:26:16.752Z,0.63
2023-01-13T09:29:18.716Z,0.60
2023-01-13T09:32:20.264Z,0.98
2023-01-13T09:35:21.789Z,0.60
2023-01-13T09:38:23.418Z,0.70
2023-01-13T09:41:45.965Z,0.80
2023-01-13T09:45:06.078Z,0.60
2023-01-13T09:48:24.607Z,0.60
2023-01-13T09:52:26.736Z,0.50
2023-01-13T09:55:34.059Z,0.32
2023-01-13T09:58:36.999Z,0.70
2023-01-13T10:02:17.055Z,1.05
2023-01-13T10:05:38.997Z,0.77
2023-01-13T10:08:43.305Z,0.40
2023-01-13T10:12:05.937Z,1.10
2023-01-13T10:15:19.834Z,0.77
2023-01-13T10:18:38.965Z,0.90
2023-01-13T10:22:04.387Z,0.70
2023-01-13T10:25:20.964Z,0.65
2023-01-13T10:28:23.972Z,1.23
2023-01-13T10:31:26.356Z,0.63
2023-01-13T10:34:29.180Z,1.13
2023-01-13T10:37:31.150Z,1.08
2023-01-13T10:40:32.753Z,0.98
2023-01-13T10:43:34.320Z,0.60
2023-01-13T10:46:51.982Z,1.00
2023-01-13T10:50:13.080Z,1.05
2023-01-13T10:53:22.927Z,0.85
2023-01-13T10:56:34.993Z,0.93
2023-01-13T10:59:36.598Z,0.77
2023-01-13T11:02:38.728Z,0.80
2023-01-13T11:05:40.846Z,1.20
2023-01-13T11:08:47.822Z,1.05
2023-01-13T11:11:55.548Z,0.82
2023-01-13T11:15:00.287Z,0.90
2023-01-13T11:18:09.381Z,1.02
2023-01-13T11:21:34.313Z,1.27
2023-01-13T11:25:01.788Z,0.90
2023-01-13T11:28:27.253Z,1.58
2023-01-13T11:31:38.064Z,1.25
2023-01-13T11:34:41.944Z,1.30
2023-01-13T11:37:50.325Z,1.55
2023-01-13T11:40:52.210Z,0.88
2023-01-13T11:44:13.086Z,1.17
2023-01-13T11:47:20.323Z,0.95
2023-01-13T11:50:33.933Z,1.20
2023-01-13T11:53:52.931Z,1.45
2023-01-13T11:57:22.389Z,0.98
2023-01-13T12:00:43.696Z,1.10
2023-01-13T12:04:00.134Z,1.67
2023-01-13T12:07:23.284Z,0.95
2023-01-13T12:10:30.983Z,2.22
2023-01-13T12:13:57.163Z,0.90
2023-01-13T12:17:01.298Z,0.70
2023-01-13T12:20:24.257Z,1.50
2023-01-13T12:23:51.766Z,1.63
2023-01-13T12:27:00.600Z,1.25
2023-01-13T12:30:13.860Z,1.23
2023-01-13T12:33:43.385Z,1.75
2023-01-13T12:37:09.479Z,1.25
2023-01-13T12:40:48.831Z,1.45
2023-01-13T12:44:11.358Z,1.70
2023-01-13T12:47:34.209Z,1.45
2023-01-13T12:50:41.034Z,1.05
2023-01-13T12:53:42.909Z,1.48
2023-01-13T12:56:45.323Z,1.38
2023-01-13T13:00:05.020Z,1.60
2023-01-13T13:03:13.656Z,1.60
2023-01-13T13:06:22.981Z,1.23
2023-01-13T13:09:36.605Z,1.60
2023-01-13T13:12:59.814Z,1.77
2023-01-13T13:16:26.510Z,1.67
2023-01-13T13:19:31.200Z,1.83
2023-01-13T13:22:44.594Z,1.83
2023-01-13T13:26:20.073Z,1.63
2023-01-13T13:29:58.372Z,2.20
2023-01-13T13:33:11.271Z,1.92
2023-01-13T13:36:58.479Z,2.15
2023-01-13T13:40:27.652Z,1.67
2023-01-13T13:43:56.974Z,1.70
2023-01-13T13:47:02.828Z,2.33
2023-01-13T13:50:20.882Z,3.05
2023-01-13T13:53:25.884Z,2.45
2023-01-13T13:56:29.176Z,2.35
2023-01-13T13:59:31.087Z,2.40
2023-01-13T14:02:38.607Z,1.13
2023-01-13T14:05:51.899Z,1.30
2023-01-13T14:08:53.387Z,1.02
2023-01-13T14:12:09.084Z,1.98
2023-01-13T14:15:34.982Z,2.03
2023-01-13T14:18:45.962Z,1.50
2023-01-13T14:21:48.300Z,1.35
2023-01-13T14:24:55.385Z,1.55
2023-01-13T14:27:59.541Z,1.92
2023-01-13T14:34:31.221Z,1.48
2023-01-13T14:37:54.428Z,1.50
2023-01-13T14:40:56.373Z,0.98
2023-01-13T14:44:00.419Z,0.90
2023-01-13T14:50:07.538Z,1.15
2023-01-13T14:53:28.006Z,1.02
2023-01-13T14:56:55.566Z,0.80
2023-01-13T15:00:08.063Z,0.90
2023-01-13T15:03:17.161Z,1.63
2023-01-13T15:06:24.431Z,1.70
2023-01-13T15:09:29.690Z,1.17
2023-01-13T15:12:36.210Z,1.60
2023-01-13T15:15:39.791Z,1.23
2023-01-13T15:18:41.371Z,1.80
2023-01-13T15:21:42.943Z,1.98
2023-01-13T15:24:44.486Z,1.30
2023-01-13T15:27:50.577Z,2.05
2023-01-13T15:30:54.450Z,1.95
2023-01-13T15:33:56.463Z,3.05
2023-01-13T15:36:58.000Z,2.53
2023-01-13T15:39:59.522Z,2.00
2023-01-13T15:43:19.640Z,1.35
2023-01-13T15:46:40.368Z,2.15
2023-01-13T15:49:46.273Z,1.65
2023-01-13T15:52:50.581Z,1.25
2023-01-13T15:55:57.717Z,1.65
2023-01-13T15:59:20.407Z,0.82
2023-01-13T16:02:22.657Z,1.25
2023-01-13T16:05:24.813Z,1.55
2023-01-13T16:08:26.432Z,1.20
2023-01-13T16:11:27.996Z,1.15
2023-01-13T16:14:29.585Z,1.58
2023-01-13T16:17:35.027Z,1.65
2023-01-13T16:20:36.755Z,1.60
2023-01-13T16:23:38.309Z,1.98
2023-01-13T16:26:40.080Z,1.77
2023-01-13T16:29:42.455Z,1.50
2023-01-13T16:32:44.068Z,1.60
2023-01-13T16:36:11.814Z,1.73
2023-01-13T16:39:20.840Z,2.80
2023-01-13T16:42:22.574Z,3.00
2023-01-13T16:45:24.886Z,2.25
2023-01-13T16:48:26.558Z,1.70
2023-01-13T16:51:28.396Z,1.52
2023-01-13T16:54:29.937Z,1.80
2023-01-13T16:57:31.505Z,1.38
2023-01-13T17:00:34.037Z,1.52
2023-01-13T17:03:44.392Z,2.45
2023-01-13T17:07:00.444Z,1.92
2023-01-13T17:10:02.092Z,1.60
2023-01-13T17:13:14.863Z,2.00
2023-01-13T17:16:21.118Z,1.95
2023-01-13T17:23:13.449Z,3.08
2023-01-13T17:26:27.424Z,3.55
2023-01-13T17:29:29.078Z,5.78
2023-01-13T17:32:30.707Z,7.90
2023-01-13T17:35:32.330Z,5.15
2023-01-13T17:38:36.889Z,2.63
2023-01-13T17:41:38.487Z,1.70
2023-01-13T17:44:40.170Z,1.73
2023-01-13T17:47:41.817Z,2.03
2023-01-13T17:50:47.542Z,1.90
2023-01-13T17:53:49.177Z,2.00
2023-01-13T17:56:50.785Z,2.58
2023-01-13T17:59:52.316Z,2.90
2023-01-13T18:02:54.501Z,1.65
2023-01-13T18:06:02.700Z,1.55
2023-01-13T18:09:04.365Z,2.05
2023-01-13T18:12:06.197Z,1.83
2023-01-13T18:15:08.177Z,1.58
2023-01-13T18:18:09.704Z,2.55
2023-01-13T18:21:38.289Z,1.73
2023-01-13T18:24:58.580Z,1.80
2023-01-13T18:28:03.297Z,1.52
2023-01-13T18:31:05.176Z,2.17
2023-01-13T18:34:06.861Z,2.95
2023-01-13T18:37:12.256Z,1.67
2023-01-13T18:40:14.175Z,2.10
2023-01-13T18:43:15.718Z,2.03
2023-01-13T18:46:17.363Z,2.08
2023-01-13T18:49:19.064Z,1.80
2023-01-13T18:52:21.711Z,2.08
2023-01-13T18:55:25.134Z,3.25
2023-01-13T18:58:27.873Z,2.55
2023-01-13T19:01:29.934Z,1.77
2023-01-13T19:04:32.639Z,2.30
2023-01-13T19:07:35.701Z,2.17
2023-01-13T19:10:39.765Z,2.25
2023-01-13T19:13:47.598Z,2.20
2023-01-13T19:16:49.118Z,3.05
2023-01-13T19:19:55.377Z,1.67
2023-01-13T19:22:56.947Z,2.15
2023-01-13T19:26:06.340Z,2.45
2023-01-13T19:29:08.736Z,2.03
2023-01-13T19:32:10.720Z,2.03
2023-01-13T19:35:17.184Z,2.10
2023-01-13T19:38:18.747Z,2.22
2023-01-13T19:41:38.883Z,2.40
2023-01-13T19:44:59.356Z,2.65
2023-01-13T19:48:02.304Z,2.33
2023-01-13T19:51:04.457Z,1.88
2023-01-13T19:54:05.959Z,2.25
2023-01-13T19:57:07.521Z,2.13
2023-01-13T20:00:10.070Z,2.90
2023-01-13T20:03:20.507Z,1.67
2023-01-13T20:06:22.146Z,2.20
2023-01-13T20:09:23.692Z,1.95
2023-01-13T20:12:29.198Z,1.95
2023-01-13T20:15:31.650Z,1.02
2023-01-13T20:18:36.421Z,1.52
2023-01-13T20:21:39.711Z,1.83
2023-01-13T20:24:41.589Z,2.20
2023-01-13T20:27:43.912Z,2.25
2023-01-13T20:30:45.684Z,2.63
2023-01-13T20:33:50.444Z,2.22
2023-01-13T20:36:52.180Z,2.42
2023-01-13T20:39:55.275Z,2.88
2023-01-13T20:42:57.009Z,2.53
2023-01-13T20:45:58.691Z,2.63
2023-01-13T20:49:00.303Z,3.00
2023-01-13T20:52:03.471Z,2.13
2023-01-13T20:55:07.047Z,2.92
2023-01-13T20:58:08.842Z,3.00
2023-01-13T21:01:10.407Z,2.28
2023-01-13T21:04:12.103Z,2.95
2023-01-13T21:07:13.903Z,3.10
2023-01-13T21:10:18.809Z,2.85
2023-01-13T21:13:39.036Z,3.03
2023-01-13T21:16:40.754Z,2.67
2023-01-13T21:19:42.342Z,2.78
2023-01-13T21:22:48.454Z,3.35
2023-01-13T21:25:50.022Z,2.85
2023-01-13T21:28:56.196Z,4.03
2023-01-13T21:31:57.844Z,3.20
2023-01-13T21:34:59.383Z,2.63
2023-01-13T21:38:01.063Z,3.42
2023-01-13T21:41:06.253Z,3.40
2023-01-13T21:44:34.250Z,3.22
2023-01-13T21:47:51.966Z,3.20
2023-01-13T21:50:53.502Z,2.88
2023-01-13T21:53:55.872Z,2.65
2023-01-13T21:56:57.498Z,3.10
2023-01-13T21:59:59.114Z,2.25
2023-01-13T22:03:05.642Z,2.78
2023-01-13T22:06:07.302Z,3.10
2023-01-13T22:09:08.879Z,3.20
2023-01-13T22:12:10.655Z,3.22
2023-01-13T22:15:14.958Z,2.70
2023-01-13T22:18:18.097Z,4.22
2023-01-13T22:21:20.075Z,3.15
2023-01-13T22:24:21.575Z,2.88
2023-01-13T22:27:26.165Z,3.00
2023-01-13T22:30:32.116Z,2.72
2023-01-13T22:33:33.653Z,2.75
2023-01-13T22:36:35.197Z,2.80
2023-01-13T22:39:36.808Z,3.35
2023-01-13T22:42:42.502Z,3.55
2023-01-13T22:45:44.074Z,2.65
2023-01-13T22:48:46.088Z,3.55
2023-01-13T22:51:47.766Z,4.05
2023-01-13T22:54:49.311Z,4.53
2023-01-13T22:57:50.964Z,4.05
2023-01-13T23:00:53.244Z,4.25
2023-01-13T23:03:55.429Z,4.50
2023-01-13T23:06:57.053Z,3.78
2023-01-13T23:09:58.577Z,4.57
2023-01-13T23:13:00.135Z,3.83
2023-01-13T23:16:03.972Z,4.88
2023-01-13T23:19:06.964Z,4.50
2023-01-13T23:22:08.482Z,4.13
2023-01-13T23:25:10.883Z,4.00
2023-01-13T23:28:12.594Z,4.43
2023-01-13T23:31:19.554Z,4.05
2023-01-13T23:34:21.223Z,3.58
2023-01-13T23:37:22.830Z,3.80
2023-01-13T23:40:24.570Z,3.95
2023-01-13T23:43:29.863Z,4.10
2023-01-13T23:46:32.704Z,4.18
2023-01-13T23:49:34.591Z,3.67
2023-01-13T23:52:36.202Z,4.85
2023-01-13T23:55:37.713Z,4.10
2023-01-13T23:58:39.812Z,4.07
